Pennsdale, Pennsylvania
Current Conditions -  °F | °C
As of 4:54 PM on Saturday 20 Dec 2014 (Local Time) from KIPT Reporting Station
Overcast Overcast  
Wind Chill: 32°   Ceiling: 3200
Heat Index: 32°   Visibility: 10mi
Dew Point: 20°   Wind: 3mph
Humidity: 61%   Direction: 240°WSW
Pressure: 30.26"   Gusts: NA
Location:  41.225°N, 76.7388°W
Report Text: KIPT 202154Z 24003KT 10SM OVC032 00/M07 A3026 RMK AO2 SLP252 T00001067
Loading
Personal Weather Stations






























Interactive Weather Map New forecast layout! Learn more

10-Day Weather Forecast

Advertisements
Track Severe Weather on mobile